Time;durP1;ratioP1;P1;durP2;ratioP2;P2;SDS_P1;SDS_P2;PMS_P1;PMS_P2;Temp;Humidity;BMP_temperature;BMP_pressure;BME280_temperature;BME280_humidity;BME280_pressure;Samples;Min_cycle;Max_cycle;Signal;HPM_P1;HPM_P2
2023/05/28 00:00:36;;;;;;;23.33;13.85;;;;;;;25.46;66.86;98204.25;5107110;28;20055;-62
2023/05/28 00:03:06;;;;;;;23.95;13.43;;;;;;;25.43;66.97;98202.16;5095016;28;20067;-63
2023/05/28 00:05:36;;;;;;;26.98;14.50;;;;;;;25.44;67.11;98206.50;5098470;28;20543;-63
2023/05/28 00:08:05;;;;;;;26.25;13.70;;;;;;;25.41;66.83;98215.22;5090964;28;20121;-61
2023/05/28 00:10:35;;;;;;;25.95;14.02;;;;;;;25.40;66.55;98227.97;5098727;28;20054;-63
2023/05/28 00:13:04;;;;;;;28.58;15.05;;;;;;;25.43;66.31;98221.97;5089436;28;20108;-63
2023/05/28 00:15:35;;;;;;;27.77;14.57;;;;;;;25.40;65.76;98219.81;5104684;28;20067;-63
2023/05/28 00:18:05;;;;;;;30.67;15.95;;;;;;;25.54;65.19;98209.00;5079271;28;20044;-63
2023/05/28 00:20:34;;;;;;;39.65;20.63;;;;;;;25.64;64.06;98208.81;5096825;28;20036;-63
2023/05/28 00:23:04;;;;;;;35.72;21.55;;;;;;;25.70;63.82;98212.25;5102929;28;20128;-62
2023/05/28 00:25:33;;;;;;;42.13;23.88;;;;;;;25.79;63.68;98208.53;5097370;28;20180;-64
2023/05/28 00:28:02;;;;;;;44.75;24.10;;;;;;;25.74;63.54;98207.81;5088512;28;20055;-64
2023/05/28 00:30:32;;;;;;;47.10;27.55;;;;;;;25.61;59.94;98198.59;5083307;28;20051;-65
2023/05/28 00:33:01;;;;;;;50.40;32.08;;;;;;;25.42;59.83;98204.06;5088064;28;20070;-65
2023/05/28 00:35:31;;;;;;;45.92;31.00;;;;;;;25.31;58.42;98197.25;5096349;28;20105;-62
2023/05/28 00:38:01;;;;;;;51.60;30.38;;;;;;;25.41;59.17;98198.94;5105156;28;20526;-64
2023/05/28 00:40:30;;;;;;;47.60;29.95;;;;;;;25.32;58.16;98187.19;5091872;28;20044;-64
2023/05/28 00:43:00;;;;;;;44.58;26.88;;;;;;;25.18;58.06;98179.03;5089104;28;20048;-61
2023/05/28 00:45:30;;;;;;;47.65;25.08;;;;;;;25.08;57.08;98157.56;5084552;28;20048;-65
2023/05/28 00:48:00;;;;;;;40.50;25.15;;;;;;;25.05;57.88;98153.53;5071731;28;20063;-64
2023/05/28 00:50:29;;;;;;;40.58;22.38;;;;;;;25.15;58.11;98157.16;5089813;28;20169;-62
2023/05/28 00:53:00;;;;;;;41.40;21.20;;;;;;;25.19;56.93;98161.69;5091059;28;20044;-63
2023/05/28 00:55:32;;;;;;;27.17;18.08;;;;;;;25.33;56.88;98180.66;5094493;28;20044;-64
2023/05/28 00:58:05;;;;;;;31.05;17.38;;;;;;;25.45;56.50;98179.06;5089132;28;20044;-63
2023/05/28 01:00:36;;;;;;;30.98;17.60;;;;;;;25.59;55.35;98183.69;5076729;28;20058;-62
2023/05/28 01:03:06;;;;;;;32.47;18.10;;;;;;;25.55;54.82;98188.94;5104566;28;20378;-62
2023/05/28 01:05:36;;;;;;;35.35;17.45;;;;;;;25.59;54.14;98189.94;5089427;28;20074;-61
2023/05/28 01:08:07;;;;;;;30.10;15.43;;;;;;;25.71;53.28;98190.22;5089158;28;20040;-64
2023/05/28 01:10:38;;;;;;;31.85;14.98;;;;;;;25.90;49.45;98188.19;5107828;28;20071;-63
2023/05/28 01:13:08;;;;;;;24.45;13.30;;;;;;;25.98;51.42;98194.78;5087790;28;20047;-61
2023/05/28 01:15:40;;;;;;;20.80;12.35;;;;;;;26.07;52.73;98189.47;5089717;28;20130;-61
2023/05/28 01:18:09;;;;;;;23.88;12.50;;;;;;;26.17;51.82;98184.59;5069233;28;20056;-61
2023/05/28 01:20:40;;;;;;;23.63;11.68;;;;;;;26.40;49.14;98188.19;5072236;28;20497;-63
2023/05/28 01:23:18;;;;;;;22.83;10.75;;;;;;;26.47;47.79;98185.03;5087800;28;20050;-64
2023/05/28 01:25:55;;;;;;;21.35;11.27;;;;;;;26.38;47.44;98183.06;5077989;28;20040;-64
2023/05/28 01:28:25;;;;;;;14.98;8.90;;;;;;;26.35;46.58;98178.25;5068354;28;20771;-62
2023/05/28 01:30:54;;;;;;;17.05;8.38;;;;;;;26.24;46.16;98178.81;5069068;28;20143;-63
2023/05/28 01:33:24;;;;;;;12.38;7.00;;;;;;;26.33;45.77;98174.25;5074190;28;20481;-63
2023/05/28 01:35:58;;;;;;;10.35;6.78;;;;;;;26.46;44.90;98178.00;5090881;28;20051;-61
2023/05/28 01:38:28;;;;;;;15.20;6.43;;;;;;;26.47;46.04;98183.13;5076350;28;20052;-62
2023/05/28 01:40:59;;;;;;;14.98;6.63;;;;;;;26.53;44.63;98192.75;5089605;28;20101;-62
2023/05/28 01:43:29;;;;;;;12.60;6.10;;;;;;;26.50;44.03;98208.88;5079297;28;20136;-63
2023/05/28 01:46:00;;;;;;;13.48;6.18;;;;;;;26.56;45.53;98222.00;5061024;28;20048;-61
2023/05/28 01:48:34;;;;;;;12.77;6.37;;;;;;;26.64;47.72;98234.84;5072110;28;20050;-62
2023/05/28 01:51:04;;;;;;;17.20;6.78;;;;;;;26.63;45.33;98235.97;5075283;28;20479;-64
2023/05/28 01:53:34;;;;;;;10.30;6.90;;;;;;;26.79;46.76;98222.81;5090404;28;20056;-63
2023/05/28 01:56:04;;;;;;;18.33;7.25;;;;;;;26.81;45.70;98224.13;5088906;28;20066;-65
2023/05/28 01:58:34;;;;;;;23.40;8.02;;;;;;;26.89;45.35;98227.22;5089680;28;20052;-65
2023/05/28 02:01:36;;;;;;;21.10;9.48;;;;;;;26.97;45.08;98223.75;5092436;28;20043;-65
2023/05/28 02:04:09;;;;;;;15.00;8.32;;;;;;;26.98;44.84;98241.69;5048008;28;20421;-63
2023/05/28 02:06:40;;;;;;;15.65;9.73;;;;;;;27.32;45.94;98236.44;5063283;28;20148;-64
2023/05/28 02:09:09;;;;;;;17.08;9.20;;;;;;;27.60;45.16;98242.50;5053455;28;20071;-63
2023/05/28 02:11:42;;;;;;;18.77;8.83;;;;;;;27.82;45.21;98247.06;5063818;28;20103;-63
2023/05/28 02:14:14;;;;;;;15.80;10.00;;;;;;;28.06;42.32;98240.06;5071570;28;20105;-65
2023/05/28 02:16:52;;;;;;;16.80;11.13;;;;;;;28.11;43.90;98253.56;5071848;28;20040;-65
2023/05/28 02:19:24;;;;;;;25.25;10.02;;;;;;;27.90;44.59;98270.78;5071394;28;20097;-64
2023/05/28 02:21:53;;;;;;;17.83;10.57;;;;;;;27.64;44.54;98267.97;5064665;28;20047;-65
2023/05/28 02:24:22;;;;;;;21.45;11.00;;;;;;;27.67;44.54;98267.34;5071347;28;20048;-62
2023/05/28 02:26:52;;;;;;;18.95;10.70;;;;;;;27.93;45.39;98268.22;5090310;28;20118;-64
2023/05/28 02:29:21;;;;;;;15.73;10.15;;;;;;;28.65;45.57;98270.44;5071277;28;20051;-63
2023/05/28 02:31:52;;;;;;;24.15;10.93;;;;;;;28.96;42.29;98267.56;5074082;28;20036;-65
2023/05/28 02:34:21;;;;;;;15.23;10.40;;;;;;;29.07;39.76;98260.66;5071631;28;20074;-63
2023/05/28 02:36:52;;;;;;;17.33;9.80;;;;;;;29.59;39.12;98269.53;5089788;28;20048;-64
2023/05/28 02:39:23;;;;;;;19.92;11.93;;;;;;;29.77;38.38;98253.88;5086369;28;20456;-64
2023/05/28 02:41:52;;;;;;;21.70;11.75;;;;;;;30.40;37.15;98265.75;5082192;28;20361;-63
2023/05/28 02:44:22;;;;;;;17.85;11.00;;;;;;;31.01;37.51;98275.09;5086405;28;20131;-63
2023/05/28 02:46:52;;;;;;;21.42;10.88;;;;;;;31.07;37.60;98271.81;5071362;28;20101;-61
2023/05/28 02:49:21;;;;;;;17.75;10.20;;;;;;;31.51;36.14;98274.91;5070680;28;20055;-63
2023/05/28 02:51:51;;;;;;;27.17;10.77;;;;;;;31.47;35.23;98273.94;5089080;28;20048;-62
2023/05/28 02:54:26;;;;;;;18.35;10.20;;;;;;;31.94;34.59;98266.97;5079618;28;20048;-62
2023/05/28 02:56:56;;;;;;;13.10;9.57;;;;;;;31.89;34.62;98256.22;5088187;28;20163;-60
2023/05/28 02:59:26;;;;;;;12.80;8.95;;;;;;;31.85;35.20;98266.28;5087775;28;20055;-62
2023/05/28 03:01:55;;;;;;;14.23;8.93;;;;;;;32.45;33.41;98261.88;5083350;28;20059;-62
2023/05/28 03:04:25;;;;;;;16.52;9.65;;;;;;;32.30;33.42;98259.88;5109082;28;20561;-62
2023/05/28 03:06:55;;;;;;;16.02;8.98;;;;;;;32.43;33.40;98248.53;5090593;28;20052;-63
2023/05/28 03:09:24;;;;;;;13.77;8.90;;;;;;;32.94;33.47;98255.09;5075577;28;20121;-64
2023/05/28 03:11:53;;;;;;;20.08;8.75;;;;;;;32.70;34.11;98257.16;5075565;28;20130;-62
2023/05/28 03:14:22;;;;;;;15.18;7.53;;;;;;;32.71;34.07;98253.25;5085822;28;20083;-62
2023/05/28 03:16:52;;;;;;;17.65;6.80;;;;;;;32.83;35.11;98264.22;5069919;28;20538;-61
2023/05/28 03:19:23;;;;;;;9.07;6.78;;;;;;;32.54;35.19;98257.84;5069143;28;20173;-62
2023/05/28 03:21:53;;;;;;;17.75;7.22;;;;;;;32.14;35.02;98259.78;5079108;28;20052;-63
2023/05/28 03:24:25;;;;;;;15.98;7.10;;;;;;;32.29;34.94;98259.06;5089637;28;20044;-61
2023/05/28 03:26:59;;;;;;;15.38;5.75;;;;;;;32.64;34.54;98253.06;5082614;28;20129;-63
2023/05/28 03:29:30;;;;;;;9.13;5.25;;;;;;;32.27;35.45;98260.53;5069402;28;20044;-60
2023/05/28 03:32:16;;;;;;;8.10;4.97;;;;;;;32.91;34.08;98258.56;5073265;28;20471;-62
2023/05/28 03:34:46;;;;;;;10.15;5.80;;;;;;;32.96;35.38;98272.03;5069534;28;20135;-62
2023/05/28 03:37:26;;;;;;;10.27;5.10;;;;;;;33.29;34.64;98274.50;5071401;28;20048;-64
2023/05/28 03:39:56;;;;;;;9.30;5.45;;;;;;;32.80;34.07;98270.38;5072460;28;20089;-63
2023/05/28 03:42:25;;;;;;;10.75;5.50;;;;;;;32.79;34.89;98269.59;5075901;28;20094;-61
2023/05/28 03:44:54;;;;;;;9.15;5.40;;;;;;;32.96;34.29;98269.28;5069002;28;20130;-62
2023/05/28 03:47:26;;;;;;;9.73;5.30;;;;;;;32.51;34.94;98279.69;5086428;28;20513;-60
2023/05/28 03:49:55;;;;;;;10.88;5.60;;;;;;;32.68;36.23;98271.22;5069386;28;20044;-62
2023/05/28 03:52:26;;;;;;;16.52;5.78;;;;;;;33.09;34.54;98280.22;5073193;28;20048;-62
2023/05/28 03:54:55;;;;;;;10.48;5.35;;;;;;;33.65;36.96;98287.22;5069731;28;20040;-62
2023/05/28 03:57:26;;;;;;;11.02;5.95;;;;;;;33.42;34.34;98305.44;5069614;28;20055;-65
2023/05/28 03:59:57;;;;;;;13.48;5.82;;;;;;;33.30;34.86;98302.78;5067813;28;20067;-64
2023/05/28 04:02:27;;;;;;;15.32;6.10;;;;;;;33.67;35.21;98301.44;5056309;28;20090;-64
2023/05/28 04:04:57;;;;;;;11.77;6.57;;;;;;;33.61;34.10;98304.75;5061465;28;20180;-61
2023/05/28 04:07:27;;;;;;;17.77;6.10;;;;;;;34.25;34.18;98308.00;5087041;28;20050;-61
2023/05/28 04:09:57;;;;;;;9.57;5.60;;;;;;;34.13;33.01;98294.31;5069983;28;20052;-62
2023/05/28 04:12:26;;;;;;;13.85;5.82;;;;;;;33.71;33.01;98296.03;5073289;28;20064;-63
2023/05/28 04:14:56;;;;;;;10.57;5.57;;;;;;;34.20;32.97;98289.03;5068958;28;20040;-62
2023/05/28 04:17:27;;;;;;;13.35;6.43;;;;;;;33.63;33.50;98296.97;5068773;28;20048;-64
2023/05/28 04:19:57;;;;;;;14.82;5.70;;;;;;;34.29;34.74;98294.31;5086365;28;20086;-62
2023/05/28 04:22:27;;;;;;;12.40;5.35;;;;;;;34.21;32.87;98295.31;5081729;28;20051;-62
2023/05/28 04:24:56;;;;;;;14.75;5.30;;;;;;;33.74;33.11;98292.56;5068845;28;20114;-63
2023/05/28 04:27:26;;;;;;;10.65;4.80;;;;;;;33.51;34.06;98286.84;5068659;28;20055;-63
2023/05/28 04:29:56;;;;;;;13.90;5.13;;;;;;;34.07;32.90;98286.72;5070480;28;20472;-63
2023/05/28 04:32:27;;;;;;;11.73;5.55;;;;;;;33.73;33.40;98291.75;5074498;28;20115;-62
2023/05/28 04:34:57;;;;;;;14.35;5.25;;;;;;;33.96;33.06;98297.44;5070411;28;20101;-62
2023/05/28 04:37:27;;;;;;;14.05;5.05;;;;;;;34.35;31.88;98300.31;5068586;28;20044;-62
2023/05/28 04:39:57;;;;;;;10.38;4.72;;;;;;;34.79;32.35;98311.94;5069947;28;20048;-63
2023/05/28 04:42:28;;;;;;;9.73;4.60;;;;;;;34.50;33.98;98311.28;5070921;28;20048;-63
2023/05/28 04:44:58;;;;;;;8.35;4.95;;;;;;;34.43;31.68;98302.09;5068753;28;20048;-60
2023/05/28 04:47:30;;;;;;;12.60;4.72;;;;;;;35.03;32.76;98306.16;5068721;28;20406;-59
2023/05/28 04:49:59;;;;;;;15.75;5.25;;;;;;;35.34;32.63;98305.19;5067493;28;20395;-60
2023/05/28 04:52:35;;;;;;;10.73;5.00;;;;;;;35.21;32.55;98303.78;5070684;28;20039;-60
2023/05/28 04:55:05;;;;;;;9.75;4.10;;;;;;;35.10;29.55;98311.78;5072069;28;20056;-62
2023/05/28 04:57:35;;;;;;;9.07;4.68;;;;;;;35.68;30.17;98320.00;5051194;28;20036;-62
2023/05/28 05:00:06;;;;;;;6.00;3.83;;;;;;;35.16;32.52;98324.13;5036714;28;20049;-61
2023/05/28 05:02:36;;;;;;;8.40;4.10;;;;;;;35.61;35.23;98320.66;5038607;28;20063;-62
2023/05/28 05:05:07;;;;;;;13.07;4.40;;;;;;;35.98;29.10;98324.47;5074513;28;20595;-62
2023/05/28 05:07:38;;;;;;;11.90;4.40;;;;;;;35.06;32.74;98325.47;5079801;28;20043;-62
2023/05/28 05:10:10;;;;;;;7.45;4.07;;;;;;;35.63;29.53;98317.53;5082086;28;20159;-69
2023/05/28 05:12:39;;;;;;;8.30;4.20;;;;;;;35.90;29.63;98314.47;5086786;28;20055;-62
2023/05/28 05:15:11;;;;;;;9.48;3.85;;;;;;;35.14;28.09;98316.19;5085967;28;20047;-63
2023/05/28 05:17:42;;;;;;;7.05;3.83;;;;;;;36.02;32.20;98319.81;5084252;28;20131;-64
2023/05/28 05:20:13;;;;;;;7.32;3.88;;;;;;;36.69;30.54;98314.53;5081962;28;20108;-62
2023/05/28 05:22:43;;;;;;;9.90;4.50;;;;;;;36.59;29.39;98308.84;5079803;28;20131;-64
2023/05/28 05:25:12;;;;;;;16.08;4.28;;;;;;;36.84;30.16;98313.56;5083601;28;20058;-62
2023/05/28 05:27:44;;;;;;;8.60;4.20;;;;;;;36.69;29.40;98317.28;5080550;28;20059;-62
2023/05/28 05:30:13;;;;;;;8.95;4.45;;;;;;;36.38;29.66;98314.88;5081650;28;20478;-62
2023/05/28 05:32:43;;;;;;;8.43;4.25;;;;;;;36.32;28.60;98311.63;5088477;28;20050;-62
2023/05/28 05:35:14;;;;;;;8.13;4.10;;;;;;;35.87;28.39;98306.16;5084180;28;20054;-62
2023/05/28 05:38:02;;;;;;;9.05;4.15;;;;;;;35.98;29.10;98309.91;5108491;27;20611;-65
2023/05/28 05:40:50;;;;;;;8.80;4.13;;;;;;;35.85;29.47;98303.75;5093744;28;20052;-65
2023/05/28 05:43:45;;;;;;;14.10;4.63;;;;;;;36.36;30.78;98303.41;5079386;28;20621;-62
2023/05/28 05:46:15;;;;;;;14.43;4.15;;;;;;;36.43;27.50;98304.28;5096062;28;20118;-63
2023/05/28 05:48:45;;;;;;;11.30;4.32;;;;;;;36.35;28.34;98299.84;5103916;28;20105;-65
2023/05/28 05:51:18;;;;;;;14.93;4.72;;;;;;;36.48;33.21;98303.97;5098494;28;20053;-65
2023/05/28 05:53:47;;;;;;;9.35;4.18;;;;;;;36.33;31.02;98317.97;5095969;28;20036;-63
2023/05/28 05:56:17;;;;;;;8.90;3.85;;;;;;;35.93;29.68;98305.50;5100074;28;20052;-63
2023/05/28 05:58:47;;;;;;;6.88;4.30;;;;;;;35.54;28.39;98309.50;5096964;28;20053;-64
2023/05/28 06:01:18;;;;;;;5.35;3.80;;;;;;;35.75;28.64;98314.63;5097277;28;20378;-64
2023/05/28 06:03:47;;;;;;;7.55;3.78;;;;;;;35.72;26.10;98298.81;5097436;27;20051;-65
2023/05/28 06:06:37;;;;;;;11.07;4.20;;;;;;;36.42;29.06;98313.75;5107440;28;20078;-66
2023/05/28 06:09:13;;;;;;;7.32;4.28;;;;;;;36.60;32.33;98311.28;5088985;28;20047;-65
2023/05/28 06:11:51;;;;;;;12.95;3.78;;;;;;;36.19;27.60;98309.47;5089472;28;20047;-64
2023/05/28 06:14:21;;;;;;;12.95;3.97;;;;;;;36.27;28.04;98309.19;5090278;28;20085;-63
2023/05/28 06:16:50;;;;;;;13.15;4.13;;;;;;;36.50;29.76;98309.13;5089216;28;20512;-65
2023/05/28 06:19:21;;;;;;;12.32;4.50;;;;;;;36.33;28.16;98302.19;5097674;28;20055;-64
2023/05/28 06:21:51;;;;;;;11.30;4.03;;;;;;;36.14;28.18;98304.25;5084700;28;20108;-63
2023/05/28 06:24:21;;;;;;;8.82;4.30;;;;;;;35.98;27.94;98301.63;5087973;28;20079;-62
2023/05/28 06:26:51;;;;;;;11.27;4.45;;;;;;;35.63;27.22;98296.25;5082085;28;20112;-62
2023/05/28 06:29:21;;;;;;;11.50;4.50;;;;;;;36.02;29.04;98294.22;5085561;28;20503;-62
2023/05/28 06:31:50;;;;;;;11.90;4.10;;;;;;;36.28;27.92;98297.00;5106389;28;20074;-62
2023/05/28 06:34:20;;;;;;;10.40;4.20;;;;;;;36.45;29.31;98292.91;5073131;28;20598;-63
2023/05/28 06:36:50;;;;;;;7.53;4.03;;;;;;;35.64;28.30;98286.03;5082765;28;20348;-62
2023/05/28 06:39:19;;;;;;;11.70;4.07;;;;;;;35.17;27.14;98292.69;5082822;28;20450;-64
2023/05/28 06:41:51;;;;;;;13.10;4.82;;;;;;;35.72;30.50;98296.06;5095970;28;20044;-61
2023/05/28 06:44:30;;;;;;;15.70;4.25;;;;;;;35.77;30.34;98290.22;5074731;28;20139;-61
2023/05/28 06:47:13;;;;;;;;;;;;;;;35.62;27.35;98300.22;5105684;28;20501;-62
2023/05/28 06:49:42;;;;;;;8.48;4.03;;;;;;;35.85;29.50;98286.47;5082714;28;19923;-62
2023/05/28 06:52:12;;;;;;;11.63;4.00;;;;;;;35.15;27.81;98292.22;5081714;28;20040;-62
2023/05/28 06:54:42;;;;;;;7.95;3.80;;;;;;;35.69;30.99;98292.09;5086926;28;20093;-63
2023/05/28 06:57:12;;;;;;;9.52;4.18;;;;;;;35.74;28.19;98285.47;5072749;28;20055;-63
2023/05/28 07:00:16;;;;;;;14.77;4.47;;;;;;;35.72;25.84;98283.06;5089978;28;20093;-63
2023/05/28 07:03:06;;;;;;;9.63;3.80;;;;;;;36.08;29.74;98281.69;5103503;28;20059;-62
2023/05/28 07:06:03;;;;;;;9.45;4.28;;;;;;;36.13;27.90;98281.41;5106794;28;20036;-63
2023/05/28 07:08:33;;;;;;;11.77;4.25;;;;;;;36.13;28.84;98273.13;5088134;28;20044;-63
2023/05/28 07:11:02;;;;;;;15.27;4.32;;;;;;;36.03;30.49;98273.72;5081238;28;20482;-64
2023/05/28 07:13:31;;;;;;;8.05;4.43;;;;;;;35.91;28.62;98266.47;5074049;28;20044;-62
2023/05/28 07:16:01;;;;;;;9.45;4.30;;;;;;;36.34;29.08;98267.91;5067590;28;20479;-62
2023/05/28 07:18:30;;;;;;;7.93;3.80;;;;;;;36.03;28.07;98269.00;5067524;28;20048;-61
2023/05/28 07:21:00;;;;;;;10.45;4.57;;;;;;;36.32;28.81;98269.47;5072534;28;20109;-61
2023/05/28 07:23:36;;;;;;;12.15;4.25;;;;;;;35.98;27.10;98274.06;5089567;28;20053;-60
2023/05/28 07:26:06;;;;;;;13.25;4.32;;;;;;;35.65;26.50;98266.44;5089357;28;20104;-61
2023/05/28 07:28:35;;;;;;;9.25;4.05;;;;;;;35.88;27.18;98269.16;5089808;28;20101;-62
2023/05/28 07:31:06;;;;;;;11.98;4.03;;;;;;;35.85;27.04;98261.66;5086983;28;20043;-62
2023/05/28 07:33:36;;;;;;;9.95;4.00;;;;;;;35.89;26.16;98259.75;5085866;28;20364;-61
2023/05/28 07:36:06;;;;;;;13.02;4.00;;;;;;;35.50;27.53;98259.84;5091499;28;20557;-61
2023/05/28 07:38:37;;;;;;;9.93;3.93;;;;;;;36.08;29.75;98256.06;5087527;28;20085;-63
2023/05/28 07:41:07;;;;;;;12.18;4.82;;;;;;;36.19;28.84;98262.56;5089510;28;20039;-63
2023/05/28 07:43:46;;;;;;;9.13;4.05;;;;;;;36.37;27.39;98264.44;5075913;28;20067;-63
2023/05/28 07:46:24;;;;;;;7.70;3.95;;;;;;;36.43;27.30;98260.16;5088966;28;22487;-63
2023/05/28 07:49:03;;;;;;;9.73;4.07;;;;;;;35.82;26.42;98265.13;5090036;28;20051;-63
2023/05/28 07:51:43;;;;;;;6.20;4.38;;;;;;;36.14;27.75;98254.63;5089996;28;20986;-63
2023/05/28 07:54:25;;;;;;;12.48;4.32;;;;;;;36.26;30.24;98257.94;5090349;28;20070;-62
2023/05/28 07:56:54;;;;;;;10.82;4.25;;;;;;;36.09;26.33;98246.63;5074177;28;20048;-62
2023/05/28 07:59:30;;;;;;;9.98;4.05;;;;;;;35.96;26.05;98246.84;5089928;28;20126;-62
2023/05/28 08:02:01;;;;;;;9.55;4.13;;;;;;;36.12;28.27;98243.94;5089656;28;20121;-64
2023/05/28 08:04:32;;;;;;;6.50;3.55;;;;;;;36.04;27.02;98240.28;5082826;28;20047;-62
2023/05/28 08:07:03;;;;;;;14.95;4.78;;;;;;;35.97;25.78;98234.66;5078934;28;20040;-64
2023/05/28 08:09:34;;;;;;;7.95;3.75;;;;;;;35.54;25.72;98232.34;5063304;28;20086;-62
2023/05/28 08:12:04;;;;;;;10.35;4.15;;;;;;;35.65;27.30;98232.56;5087924;28;20421;-63
2023/05/28 08:14:35;;;;;;;11.77;4.32;;;;;;;35.51;26.74;98231.13;5089804;28;20457;-62
2023/05/28 08:17:09;;;;;;;14.98;4.28;;;;;;;35.50;25.94;98221.28;5078854;28;20059;-61
2023/05/28 08:19:47;;;;;;;12.90;4.10;;;;;;;35.65;25.61;98216.81;5084035;28;20047;-63
2023/05/28 08:22:42;;;;;;;8.07;4.57;;;;;;;35.68;27.25;98215.28;5087054;28;20051;-61
2023/05/28 08:25:12;;;;;;;11.10;4.40;;;;;;;35.36;25.93;98209.22;5072900;28;20116;-63
2023/05/28 08:27:41;;;;;;;13.55;4.00;;;;;;;35.14;26.72;98200.53;5070549;28;20052;-62
2023/05/28 08:30:12;;;;;;;10.13;4.65;;;;;;;35.38;26.67;98201.38;5068206;28;20319;-62
2023/05/28 08:32:50;;;;;;;6.93;4.20;;;;;;;35.45;26.11;98193.25;5073878;28;20097;-63
2023/05/28 08:35:19;;;;;;;11.68;4.93;;;;;;;35.42;26.36;98192.00;5072397;28;20072;-64
2023/05/28 08:37:49;;;;;;;10.40;4.35;;;;;;;35.30;26.73;98188.66;5069034;28;20039;-63
2023/05/28 08:40:31;;;;;;;8.98;4.25;;;;;;;35.44;26.26;98189.69;5070944;28;20047;-62
2023/05/28 08:43:01;;;;;;;13.48;4.97;;;;;;;35.35;26.28;98180.09;5071545;28;20036;-63
2023/05/28 08:45:31;;;;;;;17.63;5.00;;;;;;;35.38;26.89;98179.34;5069953;28;20131;-62
2023/05/28 08:48:01;;;;;;;10.02;4.30;;;;;;;35.21;26.33;98175.13;5067868;28;20067;-62
2023/05/28 08:50:40;;;;;;;12.48;4.20;;;;;;;35.15;25.50;98166.38;5067898;28;20053;-64
2023/05/28 08:53:22;;;;;;;14.93;4.28;;;;;;;35.12;27.01;98163.53;5077778;28;20040;-61
2023/05/28 08:55:53;;;;;;;9.73;5.35;;;;;;;35.00;25.59;98158.22;5089769;28;20052;-63
2023/05/28 08:58:24;;;;;;;11.18;5.25;;;;;;;35.06;26.43;98159.50;5074573;28;20070;-63
2023/05/28 09:00:53;;;;;;;10.27;5.30;;;;;;;35.06;25.75;98153.97;5079228;28;20574;-63
2023/05/28 09:03:34;;;;;;;13.40;5.03;;;;;;;35.19;28.57;98138.09;5104438;28;20040;-65
2023/05/28 09:06:12;;;;;;;8.13;4.78;;;;;;;35.41;28.31;98131.78;5086707;28;20130;-63
2023/05/28 09:08:45;;;;;;;14.05;4.57;;;;;;;35.35;27.96;98125.00;5080623;28;20050;-63
2023/05/28 09:11:26;;;;;;;11.10;5.07;;;;;;;35.31;27.81;98119.44;5105451;28;20036;-64
2023/05/28 09:13:56;;;;;;;15.95;5.00;;;;;;;35.34;27.91;98110.44;5083906;28;20036;-61
2023/05/28 09:16:26;;;;;;;13.50;4.65;;;;;;;34.77;27.61;98099.63;5086318;28;20058;-64
2023/05/28 09:19:05;;;;;;;7.60;4.45;;;;;;;35.10;27.86;98089.56;5084807;28;20051;-60
2023/05/28 09:21:36;;;;;;;15.02;4.82;;;;;;;35.35;28.34;98075.44;5085050;28;20043;-60
2023/05/28 09:24:14;;;;;;;9.05;4.70;;;;;;;35.28;26.77;98064.28;5087817;28;20051;-59
2023/05/28 09:27:13;;;;;;;8.68;4.60;;;;;;;34.88;26.46;98035.31;5072807;28;20063;-61
2023/05/28 09:29:45;;;;;;;15.98;5.22;;;;;;;35.13;29.27;98024.72;5085188;28;20658;-61
2023/05/28 09:32:22;;;;;;;8.65;4.32;;;;;;;34.87;27.38;98013.69;5081379;28;20052;-63
2023/05/28 09:34:52;;;;;;;14.38;5.13;;;;;;;34.71;28.56;98014.63;5084603;28;20083;-64
2023/05/28 09:37:21;;;;;;;6.82;4.43;;;;;;;34.64;29.26;98006.22;5081571;28;20055;-61
2023/05/28 09:40:10;;;;;;;13.38;4.85;;;;;;;34.76;30.44;98010.75;5098618;28;20055;-60
2023/05/28 09:42:43;;;;;;;10.95;4.97;;;;;;;34.75;28.17;98011.91;5104445;28;20520;-62
2023/05/28 09:45:25;;;;;;;11.73;5.03;;;;;;;34.78;29.90;98005.69;5084579;28;20063;-60
2023/05/28 09:47:55;;;;;;;12.18;5.03;;;;;;;34.87;30.21;97997.97;5104003;28;20055;-61
2023/05/28 09:50:24;;;;;;;8.95;5.20;;;;;;;34.77;29.27;97993.09;5068057;28;20044;-62
2023/05/28 09:52:59;;;;;;;10.07;5.18;;;;;;;34.52;30.04;97992.63;5085974;28;20048;-61
2023/05/28 09:55:30;;;;;;;9.95;4.93;;;;;;;34.53;30.08;97987.94;5103992;28;20052;-62
2023/05/28 09:58:05;;;;;;;8.45;4.90;;;;;;;34.55;29.38;97989.16;5090658;28;20831;-63
2023/05/28 10:00:48;;;;;;;8.75;4.53;;;;;;;34.30;29.41;97987.16;5088870;28;20044;-61
2023/05/28 10:03:25;;;;;;;8.38;4.55;;;;;;;34.47;30.18;97970.97;5108178;28;20082;-63
2023/05/28 10:06:06;;;;;;;9.05;4.60;;;;;;;34.60;30.86;97958.59;5096632;28;20047;-63
2023/05/28 10:08:37;;;;;;;14.45;4.90;;;;;;;34.46;29.47;97968.56;5092318;28;20048;-61
2023/05/28 10:11:10;;;;;;;7.88;4.68;;;;;;;34.36;29.79;97969.16;5093814;28;20039;-61
2023/05/28 10:13:40;;;;;;;11.88;4.88;;;;;;;34.36;30.28;97985.66;5094758;28;20070;-63
2023/05/28 10:16:10;;;;;;;8.57;4.22;;;;;;;34.62;29.05;97988.47;5099550;28;20069;-62
2023/05/28 10:18:42;;;;;;;9.77;4.32;;;;;;;34.58;29.63;97987.63;5071300;28;20440;-62
2023/05/28 10:21:15;;;;;;;9.15;4.90;;;;;;;34.39;29.60;97974.72;5081254;28;20044;-62
2023/05/28 10:23:46;;;;;;;12.95;4.95;;;;;;;34.58;30.88;97965.63;5100649;28;20622;-62
2023/05/28 10:26:18;;;;;;;10.73;4.20;;;;;;;34.44;28.71;97977.16;5085568;28;20059;-63
2023/05/28 10:28:56;;;;;;;12.73;4.28;;;;;;;34.43;28.86;97975.59;5079913;28;20048;-61
2023/05/28 10:31:26;;;;;;;16.90;4.95;;;;;;;34.47;27.78;97979.22;5084803;28;20430;-60
2023/05/28 10:33:56;;;;;;;6.22;4.07;;;;;;;34.47;29.07;97984.72;5103494;28;20043;-62
2023/05/28 10:36:25;;;;;;;7.78;4.35;;;;;;;34.41;28.74;97971.63;5077079;28;20496;-61
2023/05/28 10:38:59;;;;;;;6.18;4.25;;;;;;;34.29;30.12;97969.84;5087112;28;20059;-60
2023/05/28 10:41:33;;;;;;;7.72;4.95;;;;;;;34.46;30.40;97960.31;5095876;28;20101;-62
2023/05/28 10:44:07;;;;;;;10.52;4.40;;;;;;;34.56;29.71;97973.47;5093288;28;20044;-62
2023/05/28 10:47:31;;;;;;;12.07;4.95;;;;;;;34.45;29.47;97967.75;5105100;28;20063;-61
2023/05/28 10:53:57;;;;;;;8.82;4.82;;;;;;;34.50;28.67;97959.22;5090073;28;20059;-63
2023/05/28 10:56:29;;;;;;;11.30;4.53;;;;;;;34.46;29.21;97960.31;5065006;28;20048;-63
2023/05/28 10:58:58;;;;;;;9.43;4.40;;;;;;;34.43;30.62;97958.31;5084848;28;20413;-63
2023/05/28 11:01:28;;;;;;;14.88;4.55;;;;;;;34.33;29.35;97940.47;5103120;28;20534;-60
2023/05/28 11:03:57;;;;;;;10.55;4.18;;;;;;;34.33;28.62;97934.97;5067222;28;20134;-61
2023/05/28 11:06:27;;;;;;;11.43;4.13;;;;;;;34.34;30.86;97911.81;5089505;28;20044;-63
2023/05/28 11:08:58;;;;;;;16.92;4.80;;;;;;;34.38;30.40;97909.09;5095513;28;20052;-58
2023/05/28 11:11:28;;;;;;;8.82;4.53;;;;;;;34.30;31.37;97923.91;5076592;28;20040;-60
2023/05/28 11:14:01;;;;;;;12.48;4.60;;;;;;;34.32;29.94;97925.13;5097708;28;20062;-60
2023/05/28 11:16:32;;;;;;;7.72;3.67;;;;;;;34.33;30.66;97918.47;5098019;28;20075;-60
2023/05/28 11:19:08;;;;;;;11.05;4.40;;;;;;;34.35;29.75;97923.56;5068500;28;20047;-62
2023/05/28 11:21:55;;;;;;;10.32;4.47;;;;;;;34.39;31.01;97936.22;5096496;28;20159;-63
2023/05/28 11:24:25;;;;;;;15.70;4.90;;;;;;;34.45;29.46;97931.22;5078212;28;20048;-62
2023/05/28 11:26:55;;;;;;;16.23;4.63;;;;;;;34.39;29.34;97921.69;5092343;28;20498;-60
2023/05/28 11:29:24;;;;;;;8.18;4.47;;;;;;;34.30;29.79;97921.94;5090678;28;20802;-60
2023/05/28 11:31:56;;;;;;;10.07;4.20;;;;;;;34.25;28.78;97925.81;5084610;28;20074;-59
2023/05/28 11:34:26;;;;;;;9.13;4.18;;;;;;;34.27;28.95;97925.41;5096692;28;20097;-58
2023/05/28 11:36:55;;;;;;;16.55;5.13;;;;;;;34.26;30.10;97932.06;5094692;28;20058;-59
2023/05/28 11:39:25;;;;;;;7.18;4.18;;;;;;;34.21;30.77;97935.16;5080884;28;20044;-59
2023/05/28 11:41:54;;;;;;;8.98;4.43;;;;;;;34.17;29.86;97928.78;5101465;28;20043;-59
2023/05/28 11:44:23;;;;;;;8.45;4.35;;;;;;;34.12;30.62;97929.84;5088051;28;20055;-58
2023/05/28 11:46:57;;;;;;;13.73;4.63;;;;;;;34.10;28.92;97934.91;5087456;28;20044;-58
2023/05/28 11:49:27;;;;;;;12.27;4.65;;;;;;;34.08;28.50;97930.97;5098907;28;20047;-59
2023/05/28 11:51:57;;;;;;;9.82;4.53;;;;;;;34.04;30.37;97925.38;5098525;28;20266;-59
2023/05/28 11:54:26;;;;;;;13.65;5.43;;;;;;;34.03;29.59;97923.00;5097270;28;20131;-58